createdAt,value
2018-07-08T00:00:58.665Z,13.5
2018-07-08T00:02:07.317Z,13.43
2018-07-08T00:03:16.217Z,13.4
2018-07-08T00:04:24.868Z,13.4
2018-07-08T00:05:33.512Z,13.39
2018-07-08T00:06:42.158Z,13.36
2018-07-08T00:07:50.795Z,13.27
2018-07-08T00:08:59.443Z,13.42
2018-07-08T00:10:08.093Z,13.3
2018-07-08T00:11:16.743Z,13.39
2018-07-08T00:12:25.651Z,13.33
2018-07-08T00:13:34.291Z,13.3
2018-07-08T00:14:42.940Z,13.31
2018-07-08T00:15:51.574Z,13.27
2018-07-08T00:17:00.230Z,13.19
2018-07-08T00:18:08.866Z,13.19
2018-07-08T00:19:17.516Z,13.2
2018-07-08T00:20:26.156Z,13.19
2018-07-08T00:21:34.811Z,13.17
2018-07-08T00:22:43.448Z,13.17
2018-07-08T00:23:52.096Z,13.16
2018-07-08T00:25:00.740Z,13.21
2018-07-08T00:26:09.660Z,13.13
2018-07-08T00:27:18.305Z,13.16
2018-07-08T00:28:26.943Z,13.05
2018-07-08T00:29:35.589Z,13.03
2018-07-08T00:30:44.239Z,12.91
2018-07-08T00:31:53.153Z,12.95
2018-07-08T00:33:01.796Z,12.98
2018-07-08T00:34:10.438Z,12.94
2018-07-08T00:35:19.887Z,12.9
2018-07-08T00:36:28.532Z,12.86
2018-07-08T00:37:37.174Z,12.8
2018-07-08T00:38:45.814Z,12.88
2018-07-08T00:39:54.521Z,12.9
2018-07-08T00:41:03.549Z,12.83
2018-07-08T00:42:12.197Z,12.81
2018-07-08T00:43:20.839Z,12.8
2018-07-08T00:44:29.494Z,12.75
2018-07-08T00:45:38.134Z,12.72
2018-07-08T00:46:46.773Z,12.76
2018-07-08T00:47:55.413Z,12.73
2018-07-08T00:49:04.057Z,12.7
2018-07-08T00:50:12.703Z,12.72
2018-07-08T00:51:21.340Z,12.7
2018-07-08T00:52:29.990Z,12.68
2018-07-08T00:53:38.889Z,12.66
2018-07-08T00:54:47.814Z,12.63
2018-07-08T00:55:56.455Z,12.62
2018-07-08T00:57:05.099Z,12.58
2018-07-08T00:58:13.995Z,12.61
2018-07-08T00:59:22.647Z,12.55
2018-07-08T01:00:31.297Z,12.66
2018-07-08T01:01:40.209Z,12.58
2018-07-08T01:02:48.838Z,12.61
2018-07-08T01:03:57.485Z,12.53
2018-07-08T01:05:06.130Z,12.51
2018-07-08T01:06:14.778Z,12.44
2018-07-08T01:07:23.423Z,12.53
2018-07-08T01:08:32.058Z,12.5
2018-07-08T01:09:40.707Z,12.43
2018-07-08T01:10:49.347Z,12.43
2018-07-08T01:11:57.998Z,12.4
2018-07-08T01:13:06.637Z,12.4
2018-07-08T01:14:15.549Z,12.47
2018-07-08T01:15:24.190Z,12.39
2018-07-08T01:16:32.843Z,12.35
2018-07-08T01:17:41.477Z,12.4
2018-07-08T01:18:50.123Z,12.29
2018-07-08T01:19:59.026Z,12.26
2018-07-08T01:21:07.954Z,12.28
2018-07-08T01:22:16.858Z,12.15
2018-07-08T01:23:25.497Z,12.17
2018-07-08T01:24:34.137Z,12.18
2018-07-08T01:25:42.779Z,12.2
2018-07-08T01:26:51.429Z,12.17
2018-07-08T01:28:00.593Z,12.18
2018-07-08T01:29:09.507Z,12.2
2018-07-08T01:30:18.142Z,12.11
2018-07-08T01:31:26.796Z,12.1
2018-07-08T01:32:35.439Z,12.1
2018-07-08T01:33:44.086Z,12.02
2018-07-08T01:34:52.993Z,12.11
2018-07-08T01:36:01.638Z,12.07
2018-07-08T01:37:10.280Z,11.99
2018-07-08T01:38:18.924Z,12.05
2018-07-08T01:39:27.563Z,12
2018-07-08T01:40:36.206Z,11.93
2018-07-08T01:41:45.108Z,11.91
2018-07-08T01:42:53.756Z,11.95
2018-07-08T01:44:02.402Z,11.97
2018-07-08T01:45:11.303Z,12
2018-07-08T01:46:19.946Z,12
2018-07-08T01:47:28.588Z,11.93
2018-07-08T01:48:37.238Z,11.93
2018-07-08T01:49:46.405Z,11.88
2018-07-08T01:50:55.048Z,11.86
2018-07-08T01:52:03.690Z,11.86
2018-07-08T01:53:12.338Z,11.85
2018-07-08T01:54:20.978Z,11.78
2018-07-08T01:55:29.631Z,11.93
2018-07-08T01:56:38.532Z,11.83
2018-07-08T01:57:47.182Z,11.8
2018-07-08T01:58:56.084Z,11.71
2018-07-08T02:00:04.726Z,11.78
2018-07-08T02:01:13.363Z,11.73
2018-07-08T02:02:22.008Z,11.7
2018-07-08T02:03:30.656Z,11.71
2018-07-08T02:04:39.300Z,11.76
2018-07-08T02:05:47.943Z,11.76
2018-07-08T02:06:56.598Z,11.74
2018-07-08T02:08:05.537Z,11.7
2018-07-08T02:09:14.184Z,11.65
2018-07-08T02:10:22.833Z,11.65
2018-07-08T02:11:31.472Z,11.65
2018-07-08T02:12:40.119Z,11.6
2018-07-08T02:13:48.762Z,11.58
2018-07-08T02:14:57.410Z,11.56
2018-07-08T02:16:06.326Z,11.59
2018-07-08T02:17:15.229Z,11.53
2018-07-08T02:18:23.873Z,11.62
2018-07-08T02:19:32.517Z,11.52
2018-07-08T02:20:41.162Z,11.52
2018-07-08T02:21:49.805Z,11.51
2018-07-08T02:22:58.450Z,11.56
2018-07-08T02:24:07.101Z,11.49
2018-07-08T02:25:15.743Z,11.45
2018-07-08T02:26:24.381Z,11.49
2018-07-08T02:27:33.025Z,11.45
2018-07-08T02:28:41.667Z,11.43
2018-07-08T02:29:50.315Z,11.44
2018-07-08T02:30:58.955Z,11.48
2018-07-08T02:32:07.606Z,11.49
2018-07-08T02:33:16.248Z,11.41
2018-07-08T02:34:25.172Z,11.44
2018-07-08T02:35:34.072Z,11.41
2018-07-08T02:36:42.723Z,11.52
2018-07-08T02:37:51.891Z,11.45
2018-07-08T02:39:00.536Z,11.45
2018-07-08T02:40:09.450Z,11.43
2018-07-08T02:41:18.096Z,11.33
2018-07-08T02:42:26.739Z,11.38
2018-07-08T02:43:35.377Z,11.38
2018-07-08T02:44:44.031Z,11.41
2018-07-08T02:45:52.678Z,11.26
2018-07-08T02:47:01.329Z,11.37
2018-07-08T02:48:09.973Z,11.38
2018-07-08T02:49:18.619Z,11.4
2018-07-08T02:50:27.263Z,11.4
2018-07-08T02:51:35.916Z,11.38
2018-07-08T02:52:44.555Z,11.38
2018-07-08T02:53:53.200Z,11.33
2018-07-08T02:55:01.855Z,11.3
2018-07-08T02:56:10.492Z,11.38
2018-07-08T02:57:19.143Z,11.33
2018-07-08T02:58:28.053Z,11.35
2018-07-08T02:59:36.964Z,11.3
2018-07-08T03:00:45.608Z,11.34
2018-07-08T03:01:54.255Z,11.37
2018-07-08T03:03:03.163Z,11.34
2018-07-08T03:04:11.810Z,11.31
2018-07-08T03:05:20.727Z,11.3
2018-07-08T03:06:29.647Z,11.27
2018-07-08T03:07:38.282Z,11.26
2018-07-08T03:08:46.925Z,11.23
2018-07-08T03:09:56.111Z,11.31
2018-07-08T03:11:04.752Z,11.3
2018-07-08T03:12:13.398Z,11.3
2018-07-08T03:13:22.044Z,11.3
2018-07-08T03:14:30.948Z,11.19
2018-07-08T03:15:39.863Z,11.22
2018-07-08T03:16:48.839Z,11.2
2018-07-08T03:17:57.480Z,11.26
2018-07-08T03:19:06.125Z,11.23
2018-07-08T03:20:14.765Z,11.08
2018-07-08T03:21:23.414Z,11.13
2018-07-08T03:22:32.589Z,11.18
2018-07-08T03:23:41.505Z,11.2
2018-07-08T03:24:50.165Z,11.23
2018-07-08T03:25:59.335Z,11.2
2018-07-08T03:27:07.974Z,11.13
2018-07-08T03:28:16.887Z,11.2
2018-07-08T03:29:25.519Z,11.26
2018-07-08T03:30:34.166Z,11.25
2018-07-08T03:31:43.364Z,11.27
2018-07-08T03:32:52.277Z,11.27
2018-07-08T03:34:00.922Z,11.31
2018-07-08T03:35:09.560Z,11.22
2018-07-08T03:36:18.208Z,11.19
2018-07-08T03:37:26.845Z,11.25
2018-07-08T03:38:35.497Z,11.26
2018-07-08T03:39:44.134Z,11.23
2018-07-08T03:40:52.782Z,11.3
2018-07-08T03:42:01.701Z,11.3
2018-07-08T03:43:10.616Z,11.26
2018-07-08T03:44:19.508Z,11.23
2018-07-08T03:45:28.154Z,11.25
2018-07-08T03:46:36.798Z,11.31
2018-07-08T03:47:45.448Z,11.33
2018-07-08T03:48:54.355Z,11.27
2018-07-08T03:50:02.992Z,11.34
2018-07-08T03:51:11.629Z,11.33
2018-07-08T03:52:20.269Z,11.25
2018-07-08T03:53:28.921Z,11.27
2018-07-08T03:54:37.560Z,11.34
2018-07-08T03:55:46.212Z,11.37
2018-07-08T03:56:54.846Z,11.38
2018-07-08T03:58:03.498Z,11.43
2018-07-08T03:59:12.136Z,11.34
2018-07-08T04:00:20.783Z,11.37
2018-07-08T04:01:29.416Z,11.34
2018-07-08T04:02:38.067Z,11.33
2018-07-08T04:03:46.707Z,11.48
2018-07-08T04:04:55.353Z,11.41
2018-07-08T04:06:03.987Z,11.45
2018-07-08T04:07:12.633Z,11.41
2018-07-08T04:08:21.545Z,11.43
2018-07-08T04:09:30.188Z,11.45
2018-07-08T04:10:38.832Z,11.51
2018-07-08T04:11:47.466Z,11.59
2018-07-08T04:12:56.115Z,11.41
2018-07-08T04:14:04.751Z,11.49
2018-07-08T04:15:13.424Z,11.52
2018-07-08T04:16:22.038Z,11.52
2018-07-08T04:17:30.684Z,11.58
2018-07-08T04:18:39.323Z,11.53
2018-07-08T04:19:47.975Z,11.63
2018-07-08T04:20:56.865Z,11.6
2018-07-08T04:22:05.513Z,11.53
2018-07-08T04:23:14.153Z,11.63
2018-07-08T04:24:22.806Z,11.52
2018-07-08T04:25:31.445Z,11.59
2018-07-08T04:26:40.082Z,11.58
2018-07-08T04:27:48.730Z,11.59
2018-07-08T04:28:57.377Z,11.7
2018-07-08T04:30:06.017Z,11.68
2018-07-08T04:31:14.662Z,11.7
2018-07-08T04:32:23.301Z,11.71
2018-07-08T04:33:31.953Z,11.71
2018-07-08T04:34:40.589Z,11.71
2018-07-08T04:35:49.500Z,11.73
2018-07-08T04:36:58.136Z,11.74
2018-07-08T04:38:06.790Z,11.74
2018-07-08T04:39:15.700Z,11.76
2018-07-08T04:40:24.345Z,11.76
2018-07-08T04:41:32.988Z,11.81
2018-07-08T04:42:41.639Z,11.8
2018-07-08T04:43:50.277Z,11.93
2018-07-08T04:44:59.179Z,11.96
2018-07-08T04:46:07.821Z,11.96
2018-07-08T04:47:16.459Z,12
2018-07-08T04:48:25.372Z,11.99
2018-07-08T04:49:34.014Z,12.08
2018-07-08T04:50:42.665Z,11.99
2018-07-08T04:51:51.300Z,12.12
2018-07-08T04:53:00.215Z,12.17
2018-07-08T04:54:08.855Z,12.21
2018-07-08T04:55:17.501Z,12.2
2018-07-08T04:56:26.133Z,12.21
2018-07-08T04:57:34.787Z,12.15
2018-07-08T04:58:43.425Z,12.25
2018-07-08T04:59:52.070Z,12.3
2018-07-08T05:01:00.733Z,12.26
2018-07-08T05:02:09.349Z,12.28
2018-07-08T05:03:17.995Z,12.43
2018-07-08T05:04:26.643Z,12.35
2018-07-08T05:05:35.287Z,12.54
2018-07-08T05:06:43.922Z,12.54
2018-07-08T05:07:52.572Z,12.54
2018-07-08T05:09:01.474Z,12.58
2018-07-08T05:10:10.127Z,12.61
2018-07-08T05:11:18.761Z,12.65
2018-07-08T05:12:27.693Z,12.68
2018-07-08T05:13:36.338Z,12.68
2018-07-08T05:14:44.987Z,12.69
2018-07-08T05:15:53.621Z,12.81
2018-07-08T05:17:02.267Z,12.84
2018-07-08T05:18:10.906Z,12.94
2018-07-08T05:19:19.558Z,12.95
2018-07-08T05:20:28.269Z,12.98
2018-07-08T05:21:37.106Z,13.16
2018-07-08T05:22:45.743Z,13.21
2018-07-08T05:23:54.385Z,13.2
2018-07-08T05:25:03.040Z,13.2
2018-07-08T05:26:11.951Z,13.27
2018-07-08T05:27:20.590Z,13.24
2018-07-08T05:28:29.229Z,13.36
2018-07-08T05:29:37.878Z,13.31
2018-07-08T05:30:46.527Z,13.36
2018-07-08T05:31:55.439Z,13.42
2018-07-08T05:33:04.081Z,13.47
2018-07-08T05:34:12.728Z,13.55
2018-07-08T05:35:21.370Z,13.62
2018-07-08T05:36:30.016Z,13.54
2018-07-08T05:37:38.656Z,13.71
2018-07-08T05:38:47.303Z,13.73
2018-07-08T05:39:56.204Z,13.7
2018-07-08T05:41:04.851Z,13.71
2018-07-08T05:42:13.502Z,13.79
2018-07-08T05:43:22.405Z,13.79
2018-07-08T05:44:31.051Z,13.89
2018-07-08T05:45:39.693Z,13.85
2018-07-08T05:46:48.339Z,13.97
2018-07-08T05:47:56.975Z,13.98
2018-07-08T05:49:05.620Z,14.05
2018-07-08T05:50:14.275Z,14.13
2018-07-08T05:51:23.264Z,14.04
2018-07-08T05:52:31.904Z,14.16
2018-07-08T05:53:40.549Z,14.25
2018-07-08T05:54:49.196Z,14.22
2018-07-08T05:55:57.845Z,14.28
2018-07-08T05:57:06.485Z,14.28
2018-07-08T05:58:15.134Z,14.28
2018-07-08T05:59:24.036Z,14.31
2018-07-08T06:00:32.679Z,14.37
2018-07-08T06:01:41.324Z,14.4
2018-07-08T06:02:49.977Z,14.48
2018-07-08T06:03:58.614Z,14.49
2018-07-08T06:05:07.255Z,14.49
2018-07-08T06:06:15.904Z,14.61
2018-07-08T06:07:24.549Z,14.66
2018-07-08T06:08:33.195Z,14.63
2018-07-08T06:09:41.832Z,14.74
2018-07-08T06:10:50.482Z,14.78
2018-07-08T06:11:59.388Z,14.89
2018-07-08T06:13:08.041Z,14.93
2018-07-08T06:14:16.673Z,14.96
2018-07-08T06:15:25.355Z,14.89
2018-07-08T06:16:33.972Z,14.96
2018-07-08T06:17:42.619Z,15.05
2018-07-08T06:18:51.267Z,15.15
2018-07-08T06:19:59.911Z,15.14
2018-07-08T06:21:08.561Z,15.17
2018-07-08T06:22:17.210Z,15.15
2018-07-08T06:23:26.116Z,15.23
2018-07-08T06:24:35.019Z,15.26
2018-07-08T06:25:43.668Z,15.27
2018-07-08T06:26:52.314Z,15.37
2018-07-08T06:28:00.964Z,15.43
2018-07-08T06:29:09.600Z,15.5
2018-07-08T06:30:18.523Z,15.37
2018-07-08T06:31:27.171Z,15.43
2018-07-08T06:32:35.820Z,15.54
2018-07-08T06:33:44.733Z,15.54
2018-07-08T06:34:53.375Z,15.51
2018-07-08T06:36:02.021Z,15.45
2018-07-08T06:37:10.666Z,15.57
2018-07-08T06:38:19.321Z,15.65
2018-07-08T06:39:27.967Z,15.67
2018-07-08T06:40:36.882Z,15.76
2018-07-08T06:41:45.520Z,15.78
2018-07-08T06:42:54.491Z,15.7
2018-07-08T06:44:03.136Z,15.76
2018-07-08T06:45:11.782Z,15.9
2018-07-08T06:46:20.416Z,15.83
2018-07-08T06:47:29.071Z,15.96
2018-07-08T06:48:37.715Z,16
2018-07-08T06:49:46.364Z,16.13
2018-07-08T06:50:55.000Z,16.25
2018-07-08T06:52:03.677Z,16.29
2018-07-08T06:53:12.305Z,16.25
2018-07-08T06:54:21.219Z,16.31
2018-07-08T06:55:29.865Z,16.34
2018-07-08T06:56:38.505Z,16.31
2018-07-08T06:57:47.164Z,16.32
2018-07-08T06:58:55.797Z,16.37
2018-07-08T07:00:04.454Z,16.34
2018-07-08T07:01:13.091Z,16.43
2018-07-08T07:02:21.742Z,16.4
2018-07-08T07:03:30.655Z,16.43
2018-07-08T07:04:39.301Z,16.4
2018-07-08T07:05:48.208Z,16.29
2018-07-08T07:06:56.858Z,16.39
2018-07-08T07:08:05.506Z,16.37
2018-07-08T07:09:14.166Z,16.47
2018-07-08T07:10:22.811Z,16.47
2018-07-08T07:11:31.453Z,16.58
2018-07-08T07:12:40.098Z,16.62
2018-07-08T07:13:48.740Z,16.65
2018-07-08T07:14:57.394Z,16.58
2018-07-08T07:16:06.560Z,16.68
2018-07-08T07:17:15.210Z,16.65
2018-07-08T07:18:23.846Z,16.72
2018-07-08T07:19:32.501Z,16.73
2018-07-08T07:20:41.145Z,16.84
2018-07-08T07:21:50.061Z,16.83
2018-07-08T07:22:58.729Z,16.97
2018-07-08T07:24:07.346Z,17.01
2018-07-08T07:25:15.989Z,17.12
2018-07-08T07:26:24.639Z,17.14
2018-07-08T07:27:33.282Z,17.14
2018-07-08T07:28:41.952Z,17.2
2018-07-08T07:29:50.579Z,17.2
2018-07-08T07:30:59.230Z,17.19
2018-07-08T07:32:07.875Z,17.16
2018-07-08T07:33:16.517Z,17.22
2018-07-08T07:34:25.163Z,17.19
2018-07-08T07:35:34.071Z,17.24
2018-07-08T07:36:42.986Z,17.27
2018-07-08T07:37:51.624Z,17.3
2018-07-08T07:39:00.271Z,17.31
2018-07-08T07:40:08.932Z,17.35
2018-07-08T07:41:17.582Z,17.38
2018-07-08T07:42:26.228Z,17.39
2018-07-08T07:43:34.877Z,17.42
2018-07-08T07:44:43.522Z,17.39
2018-07-08T07:45:52.175Z,17.44
2018-07-08T07:47:00.823Z,17.5
2018-07-08T07:48:09.468Z,17.57
2018-07-08T07:49:18.111Z,17.63
2018-07-08T07:50:26.756Z,17.6
2018-07-08T07:51:35.407Z,17.6
2018-07-08T07:52:44.321Z,17.71
2018-07-08T07:53:53.502Z,17.68
2018-07-08T07:55:02.145Z,17.71
2018-07-08T07:56:10.795Z,17.75
2018-07-08T07:57:19.442Z,17.75
2018-07-08T07:58:28.089Z,17.79
2018-07-08T07:59:36.738Z,17.78
2018-07-08T08:00:45.386Z,17.8
2018-07-08T08:01:54.032Z,17.82
2018-07-08T08:03:02.952Z,17.79
2018-07-08T08:04:11.856Z,17.78
2018-07-08T08:05:20.504Z,17.88
2018-07-08T08:06:29.152Z,17.94
2018-07-08T08:07:37.802Z,17.87
2018-07-08T08:08:46.452Z,17.95
2018-07-08T08:09:55.102Z,18.15
2018-07-08T08:11:04.020Z,18.13
2018-07-08T08:12:12.928Z,18.19
2018-07-08T08:13:21.578Z,18.18
2018-07-08T08:14:30.222Z,18.19
2018-07-08T08:15:39.133Z,18.24
2018-07-08T08:16:47.780Z,18.21
2018-07-08T08:17:56.433Z,18.37
2018-07-08T08:19:05.600Z,18.43
2018-07-08T08:20:14.246Z,18.39
2018-07-08T08:21:22.894Z,18.43
2018-07-08T08:22:31.536Z,18.48
2018-07-08T08:23:40.186Z,18.55
2018-07-08T08:24:48.834Z,18.55
2018-07-08T08:25:57.482Z,18.53
2018-07-08T08:27:06.404Z,18.58
2018-07-08T08:28:15.047Z,18.57
2018-07-08T08:29:23.694Z,18.63
2018-07-08T08:30:32.340Z,18.61
2018-07-08T08:31:40.993Z,18.68
2018-07-08T08:32:50.012Z,18.76
2018-07-08T08:33:58.932Z,18.73
2018-07-08T08:35:07.853Z,18.76
2018-07-08T08:36:16.509Z,18.85
2018-07-08T08:37:25.417Z,18.82
2018-07-08T08:38:34.070Z,18.94
2018-07-08T08:39:42.714Z,19.05
2018-07-08T08:40:51.634Z,18.97
2018-07-08T08:42:00.282Z,18.98
2018-07-08T08:43:08.934Z,19.01
2018-07-08T08:44:17.580Z,19.12
2018-07-08T08:45:26.225Z,19.07
2018-07-08T08:46:34.878Z,19.09
2018-07-08T08:47:43.793Z,19.15
2018-07-08T08:48:52.445Z,19.12
2018-07-08T08:50:01.091Z,19.17
2018-07-08T08:51:09.744Z,19.11
2018-07-08T08:52:18.423Z,19.23
2018-07-08T08:53:27.043Z,19.2
2018-07-08T08:54:35.687Z,19.24
2018-07-08T08:55:44.344Z,19.32
2018-07-08T08:56:52.991Z,19.45
2018-07-08T08:58:01.645Z,19.45
2018-07-08T08:59:10.292Z,19.38
2018-07-08T09:00:19.207Z,19.44
2018-07-08T09:01:27.853Z,19.44
2018-07-08T09:02:36.505Z,19.59
2018-07-08T09:03:45.233Z,19.6
2018-07-08T09:04:54.085Z,19.64
2018-07-08T09:06:02.732Z,19.62
2018-07-08T09:07:11.383Z,19.72
2018-07-08T09:08:20.040Z,19.67
2018-07-08T09:09:28.682Z,19.77
2018-07-08T09:10:37.327Z,19.85
2018-07-08T09:11:46.239Z,19.89
2018-07-08T09:12:54.926Z,19.97
2018-07-08T09:14:03.538Z,20
2018-07-08T09:15:12.190Z,20.02
2018-07-08T09:16:20.835Z,20.02
2018-07-08T09:17:29.488Z,20.18
2018-07-08T09:18:38.135Z,20.15
2018-07-08T09:19:47.041Z,20.17
2018-07-08T09:20:55.965Z,20.26
2018-07-08T09:22:04.875Z,20.17
2018-07-08T09:23:13.532Z,20.19
2018-07-08T09:24:22.175Z,20.26
2018-07-08T09:25:30.829Z,20.34
2018-07-08T09:26:39.470Z,20.39
2018-07-08T09:27:48.124Z,20.42
2018-07-08T09:28:56.769Z,20.39
2018-07-08T09:30:05.725Z,20.49
2018-07-08T09:31:14.364Z,20.42
2018-07-08T09:32:23.022Z,20.53
2018-07-08T09:33:31.670Z,20.55
2018-07-08T09:34:40.347Z,20.66
2018-07-08T09:35:48.973Z,20.66
2018-07-08T09:36:57.625Z,20.73
2018-07-08T09:38:06.551Z,20.59
2018-07-08T09:39:15.352Z,20.68
2018-07-08T09:40:23.851Z,20.71
2018-07-08T09:41:32.493Z,20.74
2018-07-08T09:42:41.145Z,20.75
2018-07-08T09:43:49.790Z,20.8
2018-07-08T09:44:58.448Z,20.86
2018-07-08T09:46:07.363Z,20.88
2018-07-08T09:47:16.012Z,20.88
2018-07-08T09:48:24.657Z,20.98
2018-07-08T09:49:33.320Z,21.04
2018-07-08T09:50:41.962Z,21.07
2018-07-08T09:51:50.876Z,21.08
2018-07-08T09:52:59.528Z,20.98
2018-07-08T09:54:08.186Z,21.01
2018-07-08T09:55:16.831Z,20.9
2018-07-08T09:56:25.477Z,20.96
2018-07-08T09:57:34.388Z,21.01
2018-07-08T09:58:43.036Z,21.13
2018-07-08T09:59:51.695Z,21.15
2018-07-08T10:01:00.343Z,21.26
2018-07-08T10:02:09.003Z,21.25
2018-07-08T10:03:17.639Z,21.45
2018-07-08T10:04:26.341Z,21.44
2018-07-08T10:05:34.948Z,21.37
2018-07-08T10:06:43.603Z,21.41
2018-07-08T10:07:52.244Z,21.58
2018-07-08T10:09:00.904Z,21.62
2018-07-08T10:10:09.549Z,21.69
2018-07-08T10:11:18.202Z,21.77
2018-07-08T10:12:26.847Z,21.78
2018-07-08T10:13:35.498Z,21.66
2018-07-08T10:14:44.153Z,21.7
2018-07-08T10:15:52.802Z,21.68
2018-07-08T10:17:01.456Z,21.75
2018-07-08T10:18:10.099Z,21.8
2018-07-08T10:19:18.778Z,21.94
2018-07-08T10:20:27.863Z,21.84
2018-07-08T10:21:36.507Z,21.88
2018-07-08T10:22:45.163Z,21.88
2018-07-08T10:23:54.078Z,22.04
2018-07-08T10:25:02.728Z,22.08
2018-07-08T10:26:11.378Z,22.14
2018-07-08T10:27:20.032Z,22.18
2018-07-08T10:28:28.680Z,22.31
2018-07-08T10:29:37.334Z,22.26
2018-07-08T10:30:45.980Z,22.34
2018-07-08T10:31:54.634Z,22.46
2018-07-08T10:33:03.285Z,22.47
2018-07-08T10:34:11.941Z,22.38
2018-07-08T10:35:20.595Z,22.46
2018-07-08T10:36:29.640Z,22.55
2018-07-08T10:37:38.230Z,22.58
2018-07-08T10:38:47.405Z,22.49
2018-07-08T10:39:56.058Z,22.43
2018-07-08T10:41:04.706Z,22.46
2018-07-08T10:42:13.356Z,22.44
2018-07-08T10:43:22.063Z,22.55
2018-07-08T10:44:31.052Z,22.49
2018-07-08T10:45:39.701Z,22.44
2018-07-08T10:46:48.356Z,22.62
2018-07-08T10:47:57.006Z,22.61
2018-07-08T10:49:05.923Z,22.71
2018-07-08T10:50:14.571Z,22.91
2018-07-08T10:51:23.222Z,22.99
2018-07-08T10:52:32.142Z,23.17
2018-07-08T10:53:40.789Z,23.14
2018-07-08T10:54:49.444Z,23.21
2018-07-08T10:55:58.097Z,23.32
2018-07-08T10:57:07.010Z,23.14
2018-07-08T10:58:15.654Z,23.25
2018-07-08T10:59:24.312Z,23.28
2018-07-08T11:00:32.963Z,23.34
2018-07-08T11:01:41.630Z,23.39
2018-07-08T11:02:50.553Z,23.49
2018-07-08T11:03:59.235Z,23.48
2018-07-08T11:05:07.865Z,23.54
2018-07-08T11:06:16.517Z,23.49
2018-07-08T11:07:25.167Z,23.52
2018-07-08T11:08:34.627Z,23.56
2018-07-08T11:09:43.279Z,23.54
2018-07-08T11:10:52.589Z,23.55
2018-07-08T11:12:01.243Z,23.51
2018-07-08T11:13:09.888Z,23.56
2018-07-08T11:14:18.541Z,23.51
2018-07-08T11:15:27.192Z,23.58
2018-07-08T11:16:35.847Z,23.58
2018-07-08T11:17:44.762Z,23.51
2018-07-08T11:18:53.946Z,23.58
2018-07-08T11:20:02.599Z,23.66
2018-07-08T11:21:11.260Z,23.55
2018-07-08T11:22:19.902Z,23.67
2018-07-08T11:23:28.558Z,23.67
2018-07-08T11:24:37.469Z,23.62
2018-07-08T11:25:46.128Z,23.69
2018-07-08T11:26:54.777Z,23.7
2018-07-08T11:28:03.432Z,23.69
2018-07-08T11:29:12.345Z,23.84
2018-07-08T11:30:21.042Z,23.86
2018-07-08T11:31:29.655Z,23.99
2018-07-08T11:32:38.300Z,23.89
2018-07-08T11:33:46.964Z,23.86
2018-07-08T11:34:55.872Z,23.92
2018-07-08T11:36:04.534Z,24.01
2018-07-08T11:37:13.179Z,24.07
2018-07-08T11:38:22.107Z,24.09
2018-07-08T11:39:31.276Z,24.04
2018-07-08T11:40:40.201Z,24
2018-07-08T11:41:48.849Z,24.01
2018-07-08T11:42:57.512Z,24.1
2018-07-08T11:44:06.150Z,24.09
2018-07-08T11:45:14.805Z,24.22
2018-07-08T11:46:23.457Z,24.25
2018-07-08T11:47:32.374Z,24.34
2018-07-08T11:48:41.027Z,24.4
2018-07-08T11:49:50.222Z,24.36
2018-07-08T11:50:58.882Z,24.5
2018-07-08T11:52:08.055Z,24.43
2018-07-08T11:53:16.981Z,24.36
2018-07-08T11:54:25.621Z,24.4
2018-07-08T11:55:34.634Z,24.51
2018-07-08T11:56:43.280Z,24.53
2018-07-08T11:57:52.208Z,24.56
2018-07-08T11:59:00.848Z,24.53
2018-07-08T12:00:09.506Z,24.53
2018-07-08T12:01:18.155Z,24.59
2018-07-08T12:02:26.824Z,24.68
2018-07-08T12:03:35.474Z,24.63
2018-07-08T12:04:44.121Z,24.62
2018-07-08T12:05:52.770Z,24.61
2018-07-08T12:07:01.418Z,24.63
2018-07-08T12:08:10.077Z,24.65
2018-07-08T12:09:18.724Z,24.77
2018-07-08T12:10:27.646Z,24.68
2018-07-08T12:11:36.289Z,24.74
2018-07-08T12:12:44.950Z,24.92
2018-07-08T12:13:53.600Z,24.86
2018-07-08T12:15:02.258Z,24.71
2018-07-08T12:16:10.916Z,24.77
2018-07-08T12:17:19.818Z,24.85
2018-07-08T12:18:28.470Z,24.82
2018-07-08T12:19:37.122Z,24.81
2018-07-08T12:20:46.043Z,24.81
2018-07-08T12:21:54.693Z,24.86
2018-07-08T12:23:03.340Z,24.81
2018-07-08T12:24:11.990Z,25.06
2018-07-08T12:25:20.639Z,25.01
2018-07-08T12:26:29.301Z,24.89
2018-07-08T12:27:38.017Z,24.81
2018-07-08T12:28:46.601Z,24.84
2018-07-08T12:29:55.244Z,24.85
2018-07-08T12:31:03.907Z,24.93
2018-07-08T12:32:12.819Z,25
2018-07-08T12:33:21.475Z,25.01
2018-07-08T12:34:30.118Z,24.89
2018-07-08T12:35:38.779Z,25
2018-07-08T12:36:47.445Z,24.93
2018-07-08T12:37:56.651Z,25.03
2018-07-08T12:39:05.553Z,25.19
2018-07-08T12:40:14.474Z,25.15
2018-07-08T12:41:23.395Z,25.33
2018-07-08T12:42:32.048Z,25.31
2018-07-08T12:43:40.702Z,25.41
2018-07-08T12:44:49.447Z,25.39
2018-07-08T12:45:58.009Z,25.48
2018-07-08T12:47:06.917Z,25.55
2018-07-08T12:48:15.576Z,25.49
2018-07-08T12:49:24.221Z,25.49
2018-07-08T12:50:32.872Z,25.51
2018-07-08T12:51:41.520Z,25.46
2018-07-08T12:52:50.182Z,25.54
2018-07-08T12:53:58.825Z,25.44
2018-07-08T12:55:07.479Z,25.33
2018-07-08T12:56:16.128Z,25.31
2018-07-08T12:57:24.788Z,25.4
2018-07-08T12:58:33.490Z,25.33
2018-07-08T12:59:42.080Z,25.33
2018-07-08T13:00:50.730Z,25.34
2018-07-08T13:01:59.377Z,25.44
2018-07-08T13:03:08.038Z,25.31
2018-07-08T13:04:16.686Z,25.31
2018-07-08T13:05:25.341Z,25.44
2018-07-08T13:06:34.042Z,25.34
2018-07-08T13:07:42.986Z,25.37
2018-07-08T13:08:51.632Z,25.36
2018-07-08T13:10:00.294Z,25.24
2018-07-08T13:11:08.938Z,25.21
2018-07-08T13:12:17.601Z,25.12
2018-07-08T13:13:26.254Z,25.12
2018-07-08T13:14:34.909Z,25.14
2018-07-08T13:15:43.556Z,25.16
2018-07-08T13:16:52.209Z,25.24
2018-07-08T13:18:00.881Z,25.33
2018-07-08T13:19:09.519Z,25.4
2018-07-08T13:20:18.176Z,25.48
2018-07-08T13:21:26.826Z,25.46
2018-07-08T13:22:35.480Z,25.62
2018-07-08T13:23:44.399Z,25.68
2018-07-08T13:24:53.055Z,25.71
2018-07-08T13:26:01.710Z,25.77
2018-07-08T13:27:10.363Z,25.71
2018-07-08T13:28:19.016Z,25.63
2018-07-08T13:29:27.673Z,25.55
2018-07-08T13:30:36.320Z,25.7
2018-07-08T13:31:45.244Z,25.58
2018-07-08T13:32:53.893Z,25.61
2018-07-08T13:34:02.552Z,25.56
2018-07-08T13:35:11.469Z,25.7
2018-07-08T13:36:20.382Z,25.7
2018-07-08T13:37:29.294Z,25.7
2018-07-08T13:38:37.944Z,25.67
2018-07-08T13:39:46.868Z,25.55
2018-07-08T13:40:55.513Z,25.62
2018-07-08T13:42:04.166Z,25.66
2018-07-08T13:43:12.812Z,25.66
2018-07-08T13:44:21.470Z,25.66
2018-07-08T13:45:30.391Z,25.7
2018-07-08T13:46:39.046Z,25.66
2018-07-08T13:47:47.693Z,25.67
2018-07-08T13:48:56.350Z,25.7
2018-07-08T13:50:05.000Z,25.61
2018-07-08T13:51:13.656Z,25.73
2018-07-08T13:52:22.317Z,25.78
2018-07-08T13:53:30.965Z,25.78
2018-07-08T13:54:39.879Z,25.73
2018-07-08T13:55:48.534Z,25.7
2018-07-08T13:56:57.188Z,25.7
2018-07-08T13:58:05.834Z,25.7
2018-07-08T13:59:14.491Z,25.66
2018-07-08T14:00:23.140Z,25.62
2018-07-08T14:01:31.794Z,25.73
2018-07-08T14:02:40.444Z,25.55
2018-07-08T14:03:49.098Z,25.58
2018-07-08T14:04:57.749Z,25.54
2018-07-08T14:06:06.411Z,25.55
2018-07-08T14:07:15.584Z,25.46
2018-07-08T14:08:24.501Z,25.48
2018-07-08T14:09:33.156Z,25.46
2018-07-08T14:10:41.814Z,25.51
2018-07-08T14:11:50.728Z,25.44
2018-07-08T14:12:59.382Z,25.44
2018-07-08T14:14:08.032Z,25.52
2018-07-08T14:15:16.683Z,25.51
2018-07-08T14:16:25.347Z,25.56
2018-07-08T14:17:33.995Z,25.62
2018-07-08T14:18:42.655Z,25.59
2018-07-08T14:19:51.308Z,25.56
2018-07-08T14:21:00.232Z,25.49
2018-07-08T14:22:08.877Z,25.52
2018-07-08T14:23:17.536Z,25.51
2018-07-08T14:24:26.179Z,25.58
2018-07-08T14:25:34.858Z,25.43
2018-07-08T14:26:44.094Z,25.4
2018-07-08T14:27:52.749Z,25.31
2018-07-08T14:29:01.395Z,25.31
2018-07-08T14:30:10.056Z,25.41
2018-07-08T14:31:18.819Z,25.37
2018-07-08T14:32:27.369Z,25.34
2018-07-08T14:33:36.026Z,25.15
2018-07-08T14:34:44.728Z,25.15
2018-07-08T14:35:54.011Z,25.24
2018-07-08T14:37:02.659Z,25.25
2018-07-08T14:38:11.321Z,25.25
2018-07-08T14:39:19.960Z,25.36
2018-07-08T14:40:28.618Z,25.24
2018-07-08T14:41:37.268Z,25.22
2018-07-08T14:42:45.927Z,25.24
2018-07-08T14:43:54.572Z,25.26
2018-07-08T14:45:03.232Z,25.18
2018-07-08T14:46:11.930Z,25.36
2018-07-08T14:47:20.922Z,25.41
2018-07-08T14:48:29.571Z,25.41
2018-07-08T14:49:38.218Z,25.4